Time;durP1;ratioP1;P1;durP2;ratioP2;P2;SDS_P1;SDS_P2;PMS_P1;PMS_P2;Temp;Humidity;BMP_temperature;BMP_pressure;BME280_temperature;BME280_humidity;BME280_pressure;Samples;Min_cycle;Max_cycle;Signal;HPM_P1;HPM_P2
2022/12/16 00:02:00;;;;;;;48.42;25.23;;;;;;;-3.85;100.00;151593.97;5032104;28;20036;-75
2022/12/16 00:04:26;;;;;;;46.42;25.73;;;;;;;-3.82;100.00;151601.63;5035223;28;20138;-75
2022/12/16 00:06:52;;;;;;;46.20;24.92;;;;;;;-3.85;100.00;151592.72;5048372;28;20080;-75
2022/12/16 00:09:17;;;;;;;55.70;25.13;;;;;;;-3.86;100.00;151591.47;5049262;28;20041;-75
2022/12/16 00:11:43;;;;;;;46.22;25.40;;;;;;;-3.88;100.00;151585.09;5079580;28;20066;-75
2022/12/16 00:14:09;;;;;;;48.60;25.25;;;;;;;-3.80;100.00;151605.44;5040102;28;20671;-75
2022/12/16 00:16:35;;;;;;;46.25;24.38;;;;;;;-3.79;100.00;151607.94;5038954;28;20489;-75
2022/12/16 00:19:00;;;;;;;47.70;25.35;;;;;;;-3.79;100.00;151607.94;5039085;28;20211;-74
2022/12/16 00:21:28;;;;;;;46.03;24.02;;;;;;;-3.78;100.00;151610.50;5064647;28;20033;-75
2022/12/16 00:23:55;;;;;;;43.03;22.23;;;;;;;-3.81;100.00;151604.13;5051626;28;20060;-75
2022/12/16 00:26:21;;;;;;;45.70;24.20;;;;;;;-3.85;100.00;151592.72;5039049;28;20094;-75
2022/12/16 00:28:47;;;;;;;45.78;24.60;;;;;;;-3.88;100.00;151586.38;5016181;28;20814;-75
2022/12/16 00:31:13;;;;;;;43.08;23.70;;;;;;;-3.88;100.00;151585.09;5035499;28;20043;-75
2022/12/16 00:33:39;;;;;;;41.63;24.15;;;;;;;-3.85;100.00;151592.72;5034172;28;20037;-76
2022/12/16 00:36:05;;;;;;;46.70;24.60;;;;;;;-3.85;100.00;151592.72;5035322;28;20043;-75
2022/12/16 00:38:30;;;;;;;44.05;23.55;;;;;;;-3.89;100.00;151583.81;5040780;28;20044;-75
2022/12/16 00:40:56;;;;;;;47.90;25.33;;;;;;;-3.91;100.00;151578.75;5056523;28;20039;-75
2022/12/16 00:43:22;;;;;;;47.22;25.50;;;;;;;-3.91;100.00;151580.00;5050292;28;20075;-75
2022/12/16 00:45:48;;;;;;;44.72;24.23;;;;;;;-3.90;100.00;151581.28;5072697;28;20119;-75
2022/12/16 00:48:13;;;;;;;45.55;23.63;;;;;;;-3.84;100.00;151595.25;5048826;28;20108;-75
2022/12/16 00:50:39;;;;;;;48.25;24.13;;;;;;;-3.83;100.00;151599.06;5061071;28;20151;-75
2022/12/16 00:53:05;;;;;;;47.67;25.02;;;;;;;-3.84;100.00;151595.25;5043355;28;20523;-75
2022/12/16 00:55:31;;;;;;;46.97;23.30;;;;;;;-3.85;100.00;151592.72;5024724;28;20032;-75
2022/12/16 00:57:57;;;;;;;47.45;24.55;;;;;;;-3.81;100.00;151604.13;5062048;28;20131;-75
2022/12/16 01:00:23;;;;;;;47.83;25.33;;;;;;;-3.81;100.00;151602.88;5044070;28;20044;-75
2022/12/16 01:02:49;;;;;;;45.30;26.00;;;;;;;-3.88;100.00;151586.38;5067779;28;20040;-75
2022/12/16 01:05:25;;;;;;;48.75;26.08;;;;;;;-3.86;100.00;151591.47;5030602;28;20059;-74
2022/12/16 01:07:54;;;;;;;49.67;24.85;;;;;;;-3.81;100.00;151602.88;5039520;28;20054;-75
2022/12/16 01:10:22;;;;;;;44.78;24.17;;;;;;;-3.80;100.00;151605.44;5031440;28;20662;-75
2022/12/16 01:12:48;;;;;;;46.33;24.02;;;;;;;-3.86;100.00;151591.47;5036064;28;20112;-75
2022/12/16 01:15:14;;;;;;;53.22;25.45;;;;;;;-3.88;100.00;151585.09;5072876;28;20056;-75
2022/12/16 01:17:41;;;;;;;47.05;24.67;;;;;;;-3.88;100.00;151585.09;5037332;28;20039;-75
2022/12/16 01:20:08;;;;;;;46.92;25.73;;;;;;;-3.87;100.00;151588.91;5043767;28;20032;-75
2022/12/16 01:22:34;;;;;;;43.75;24.77;;;;;;;-3.89;100.00;151582.56;5052455;28;20032;-75
2022/12/16 01:25:00;;;;;;;45.65;23.13;;;;;;;-3.80;100.00;151605.44;5081252;28;20116;-75
2022/12/16 01:27:27;;;;;;;46.70;25.42;;;;;;;-3.83;100.00;151597.81;5057354;28;20507;-75
2022/12/16 01:29:54;;;;;;;52.13;25.60;;;;;;;-3.82;100.00;151600.34;5032297;28;20044;-75
2022/12/16 01:32:20;;;;;;;48.97;25.95;;;;;;;-3.87;100.00;151588.91;5051137;28;20041;-75
2022/12/16 01:34:53;;;;;;;57.20;26.98;;;;;;;-3.86;100.00;151591.47;5033023;28;20097;-75
2022/12/16 01:37:19;;;;;;;48.47;24.80;;;;;;;-3.87;100.00;151587.66;5068383;28;20118;-75
2022/12/16 01:39:46;;;;;;;49.88;25.17;;;;;;;-3.86;100.00;151591.47;5048407;28;20043;-75
2022/12/16 01:42:16;;;;;;;49.15;23.23;;;;;;;-3.86;100.00;151590.16;5050294;28;20451;-75
2022/12/16 01:44:44;;;;;;;47.35;25.02;;;;;;;-3.84;100.00;151596.53;5056209;28;20028;-75
2022/12/16 01:47:15;;;;;;;46.38;24.05;;;;;;;-3.83;100.00;151599.06;5059365;28;20045;-75
2022/12/16 01:49:44;;;;;;;46.63;24.83;;;;;;;-3.86;100.00;151590.16;5032833;28;20033;-75
2022/12/16 01:52:17;;;;;;;47.85;25.77;;;;;;;-3.85;100.00;151593.97;5053696;28;20037;-75
2022/12/16 01:54:49;;;;;;;50.60;23.85;;;;;;;-3.86;100.00;151591.47;5053390;28;20032;-75
2022/12/16 01:57:20;;;;;;;53.17;25.55;;;;;;;-3.87;100.00;151587.66;5029451;28;20040;-75
2022/12/16 01:59:49;;;;;;;47.30;24.10;;;;;;;-3.86;100.00;151591.47;5046433;28;20843;-75
2022/12/16 02:02:15;;;;;;;53.30;24.63;;;;;;;-3.84;100.00;151596.53;5032608;28;20036;-75
2022/12/16 02:05:19;;;;;;;43.05;23.38;;;;;;;-3.87;100.00;151587.66;5030441;28;20401;-75
2022/12/16 02:07:26;;;;;;;44.35;24.60;;;;;;;-3.91;100.00;151578.75;5038994;28;20044;-75
2022/12/16 02:09:53;;;;;;;49.08;24.73;;;;;;;-3.90;100.00;151581.28;5066494;28;20051;-75
2022/12/16 02:12:30;;;;;;;51.63;27.40;;;;;;;-3.87;100.00;151587.66;5036484;28;20041;-75
2022/12/16 02:15:18;;;;;;;50.22;25.50;;;;;;;-3.92;100.00;151577.50;5021189;28;20048;-75
2022/12/16 02:18:07;;;;;;;47.03;26.10;;;;;;;-3.92;100.00;151577.50;5042757;28;20075;-75
2022/12/16 02:20:45;;;;;;;48.22;25.38;;;;;;;-3.73;100.00;151624.47;5034883;28;20100;-74
2022/12/16 02:23:33;;;;;;;42.78;21.92;;;;;;;-3.78;100.00;151610.50;5037260;28;20174;-76
2022/12/16 02:26:29;;;;;;;46.83;24.95;;;;;;;-3.85;100.00;151592.72;5040228;28;20105;-75
2022/12/16 02:29:20;;;;;;;50.80;26.08;;;;;;;-3.91;100.00;151578.75;5031178;28;20036;-75
2022/12/16 02:32:16;;;;;;;50.65;25.42;;;;;;;-3.86;100.00;151590.16;5064310;28;20744;-75
2022/12/16 02:34:53;;;;;;;50.63;26.30;;;;;;;-3.89;100.00;151582.56;5037911;28;20093;-75
2022/12/16 02:37:30;;;;;;;49.88;24.70;;;;;;;-3.94;100.00;151571.13;5067250;28;20045;-75
2022/12/16 02:40:02;;;;;;;50.15;24.92;;;;;;;-3.95;100.00;151569.84;5031508;28;20119;-75
2022/12/16 02:42:32;;;;;;;43.80;23.17;;;;;;;-3.97;100.00;151563.53;5055994;28;20040;-75
2022/12/16 02:45:04;;;;;;;51.22;25.80;;;;;;;-3.96;100.00;151567.31;5046865;28;20074;-75
2022/12/16 02:47:30;;;;;;;46.97;25.42;;;;;;;-3.99;100.00;151559.72;5061724;28;20139;-75
2022/12/16 02:49:56;;;;;;;54.92;26.25;;;;;;;-3.97;100.00;151564.78;5039907;28;20044;-75
2022/12/16 02:52:26;;;;;;;45.22;25.50;;;;;;;-3.93;100.00;151573.69;5024612;28;20055;-75
2022/12/16 02:55:00;;;;;;;50.22;24.45;;;;;;;-3.97;100.00;151563.53;5028750;28;20477;-75
2022/12/16 02:57:51;;;;;;;46.33;24.02;;;;;;;-3.97;100.00;151564.78;5040241;28;20045;-75
2022/12/16 03:00:22;;;;;;;54.78;24.73;;;;;;;-4.00;100.00;151557.16;5051308;28;20047;-75
2022/12/16 03:02:57;;;;;;;51.60;25.58;;;;;;;-3.98;100.00;151562.22;5045877;28;20055;-75
2022/12/16 03:05:33;;;;;;;48.38;24.80;;;;;;;-4.07;100.00;151538.13;5049885;28;20053;-75
2022/12/16 03:08:03;;;;;;;50.17;25.13;;;;;;;-4.08;100.00;151536.84;5040169;28;20040;-75
2022/12/16 03:10:36;;;;;;;51.63;25.75;;;;;;;-4.14;100.00;151522.88;5024988;28;20032;-75
2022/12/16 03:13:04;;;;;;;48.22;24.27;;;;;;;-4.21;100.00;151505.09;5035868;28;20040;-75
2022/12/16 03:15:33;;;;;;;47.55;25.15;;;;;;;-4.20;100.00;151507.66;5040831;28;20032;-75
2022/12/16 03:18:01;;;;;;;48.15;25.23;;;;;;;-4.20;100.00;151506.38;5062065;28;20184;-75
2022/12/16 03:20:34;;;;;;;46.33;25.70;;;;;;;-4.29;100.00;151484.81;5066631;28;20332;-75
2022/12/16 03:23:05;;;;;;;49.22;23.70;;;;;;;-4.31;100.00;151479.75;5040885;28;20043;-74
2022/12/16 03:25:34;;;;;;;50.17;24.88;;;;;;;-4.42;100.00;151453.06;5015928;28;20123;-74
2022/12/16 03:28:12;;;;;;;49.00;24.15;;;;;;;-4.50;100.00;151432.78;5066857;28;20520;-74
2022/12/16 03:30:44;;;;;;;43.40;22.45;;;;;;;-4.65;100.00;151394.66;5047961;28;20051;-75
2022/12/16 03:33:34;;;;;;;44.43;22.83;;;;;;;-4.80;100.00;151357.88;5067677;28;20038;-75
2022/12/16 03:36:09;;;;;;;45.05;22.23;;;;;;;-4.92;100.00;151329.94;5036810;28;20059;-75
2022/12/16 03:38:37;;;;;;;46.03;25.25;;;;;;;-5.06;100.00;151294.44;5067091;28;20047;-75
2022/12/16 03:41:04;;;;;;;46.85;25.10;;;;;;;-5.20;100.00;151260.16;5036650;28;20166;-74
2022/12/16 03:43:30;;;;;;;46.72;22.52;;;;;;;-5.30;100.00;151236.09;5049039;28;20035;-75
2022/12/16 03:46:01;;;;;;;47.35;23.10;;;;;;;-5.35;100.00;151222.13;5048941;28;20036;-75
2022/12/16 03:48:27;;;;;;;45.67;22.92;;;;;;;-5.34;100.00;151225.94;5074493;28;20063;-75
2022/12/16 03:50:52;;;;;;;44.63;22.98;;;;;;;-5.36;100.00;151219.63;5035718;28;20161;-75
2022/12/16 03:53:18;;;;;;;48.78;24.00;;;;;;;-5.37;100.00;151218.38;5070005;28;20096;-75
2022/12/16 03:55:44;;;;;;;48.17;24.38;;;;;;;-5.31;100.00;151232.31;5047811;28;20036;-75
2022/12/16 03:58:09;;;;;;;51.83;25.58;;;;;;;-5.30;100.00;151234.81;5051399;28;20070;-75
2022/12/16 04:00:35;;;;;;;45.45;23.95;;;;;;;-5.32;100.00;151231.00;5037302;28;20036;-75
2022/12/16 04:03:01;;;;;;;56.40;25.42;;;;;;;-5.34;100.00;151224.69;5053520;28;20040;-74
2022/12/16 04:05:26;;;;;;;54.30;26.88;;;;;;;-5.46;100.00;151195.53;5048478;28;20044;-75
2022/12/16 04:07:52;;;;;;;49.58;23.85;;;;;;;-5.65;100.00;151148.59;5050610;28;20082;-75
2022/12/16 04:24:17;;;;;;;52.55;24.80;;;;;;;-5.87;100.00;151094.06;5048826;28;20071;-75
2022/12/16 04:24:19;;;;;;;46.95;23.35;;;;;;;-6.08;100.00;151043.41;5040141;28;20489;-75
